sensor_id;sensor_type;location;lat;lon;timestamp;temperature;humidity
12872;DHT22;6504;53.766;9.626;2022-08-20T00:00:45;19.50;99.90
12872;DHT22;6504;53.766;9.626;2022-08-20T00:03:32;19.50;99.90
12872;DHT22;6504;53.766;9.626;2022-08-20T00:06:20;19.50;99.90
12872;DHT22;6504;53.766;9.626;2022-08-20T00:09:08;19.50;99.90
12872;DHT22;6504;53.766;9.626;2022-08-20T00:11:53;19.50;99.90
12872;DHT22;6504;53.766;9.626;2022-08-20T00:14:39;19.50;99.90
12872;DHT22;6504;53.766;9.626;2022-08-20T00:17:25;19.50;99.90
12872;DHT22;6504;53.766;9.626;2022-08-20T00:20:16;19.50;99.90
12872;DHT22;6504;53.766;9.626;2022-08-20T00:23:03;19.50;99.90
12872;DHT22;6504;53.766;9.626;2022-08-20T00:25:51;19.50;99.90
12872;DHT22;6504;53.766;9.626;2022-08-20T00:28:37;19.50;99.90
12872;DHT22;6504;53.766;9.626;2022-08-20T00:31:23;19.60;99.90
12872;DHT22;6504;53.766;9.626;2022-08-20T00:34:09;19.60;99.90
12872;DHT22;6504;53.766;9.626;2022-08-20T00:36:58;19.60;99.90
12872;DHT22;6504;53.766;9.626;2022-08-20T00:39:43;19.60;99.90
12872;DHT22;6504;53.766;9.626;2022-08-20T00:42:33;19.60;99.90
12872;DHT22;6504;53.766;9.626;2022-08-20T00:45:30;19.60;99.90
12872;DHT22;6504;53.766;9.626;2022-08-20T00:48:16;19.60;99.90
12872;DHT22;6504;53.766;9.626;2022-08-20T00:51:08;19.50;99.90
12872;DHT22;6504;53.766;9.626;2022-08-20T00:53:57;19.60;99.90
12872;DHT22;6504;53.766;9.626;2022-08-20T00:56:56;19.60;99.90
12872;DHT22;6504;53.766;9.626;2022-08-20T00:59:44;19.50;99.90
12872;DHT22;6504;53.766;9.626;2022-08-20T01:02:33;19.50;99.90
12872;DHT22;6504;53.766;9.626;2022-08-20T01:05:19;19.50;99.90
12872;DHT22;6504;53.766;9.626;2022-08-20T01:08:07;19.50;99.90
12872;DHT22;6504;53.766;9.626;2022-08-20T01:10:53;19.50;99.90
12872;DHT22;6504;53.766;9.626;2022-08-20T01:13:50;19.40;99.90
12872;DHT22;6504;53.766;9.626;2022-08-20T01:16:37;19.50;99.90
12872;DHT22;6504;53.766;9.626;2022-08-20T01:19:31;19.40;99.90
12872;DHT22;6504;53.766;9.626;2022-08-20T01:22:23;19.40;99.90
12872;DHT22;6504;53.766;9.626;2022-08-20T01:25:36;19.50;99.90
12872;DHT22;6504;53.766;9.626;2022-08-20T01:28:25;19.40;99.90
12872;DHT22;6504;53.766;9.626;2022-08-20T01:31:19;19.50;99.90
12872;DHT22;6504;53.766;9.626;2022-08-20T01:34:06;19.40;99.90
12872;DHT22;6504;53.766;9.626;2022-08-20T01:36:55;19.40;99.90
12872;DHT22;6504;53.766;9.626;2022-08-20T01:39:41;19.40;99.90
12872;DHT22;6504;53.766;9.626;2022-08-20T01:42:35;19.40;99.90
12872;DHT22;6504;53.766;9.626;2022-08-20T01:45:22;19.40;99.90
12872;DHT22;6504;53.766;9.626;2022-08-20T01:48:11;19.40;99.90
12872;DHT22;6504;53.766;9.626;2022-08-20T01:51:04;19.40;99.90
12872;DHT22;6504;53.766;9.626;2022-08-20T01:53:52;19.40;99.90
12872;DHT22;6504;53.766;9.626;2022-08-20T01:56:52;19.40;99.90
12872;DHT22;6504;53.766;9.626;2022-08-20T01:59:40;19.40;99.90
12872;DHT22;6504;53.766;9.626;2022-08-20T02:02:09;19.40;99.90
12872;DHT22;6504;53.766;9.626;2022-08-20T02:04:41;19.40;99.90
12872;DHT22;6504;53.766;9.626;2022-08-20T02:07:17;19.50;99.90
12872;DHT22;6504;53.766;9.626;2022-08-20T02:09:47;19.40;99.90
12872;DHT22;6504;53.766;9.626;2022-08-20T02:12:16;19.50;99.90
12872;DHT22;6504;53.766;9.626;2022-08-20T02:14:48;19.50;99.90
12872;DHT22;6504;53.766;9.626;2022-08-20T02:17:22;19.50;99.90
12872;DHT22;6504;53.766;9.626;2022-08-20T02:19:54;19.50;99.90
12872;DHT22;6504;53.766;9.626;2022-08-20T02:22:28;19.50;99.90
12872;DHT22;6504;53.766;9.626;2022-08-20T02:25:00;19.50;99.90
12872;DHT22;6504;53.766;9.626;2022-08-20T02:27:31;19.50;99.90
12872;DHT22;6504;53.766;9.626;2022-08-20T02:30:05;19.40;99.90
12872;DHT22;6504;53.766;9.626;2022-08-20T02:32:48;19.40;99.90
12872;DHT22;6504;53.766;9.626;2022-08-20T02:35:22;19.40;99.90
12872;DHT22;6504;53.766;9.626;2022-08-20T02:37:51;19.40;99.90
12872;DHT22;6504;53.766;9.626;2022-08-20T02:40:22;19.40;99.90
12872;DHT22;6504;53.766;9.626;2022-08-20T02:42:57;19.40;99.90
12872;DHT22;6504;53.766;9.626;2022-08-20T02:45:28;19.40;99.90
12872;DHT22;6504;53.766;9.626;2022-08-20T02:47:59;19.40;99.90
12872;DHT22;6504;53.766;9.626;2022-08-20T02:50:27;19.40;99.90
12872;DHT22;6504;53.766;9.626;2022-08-20T02:52:55;19.40;99.90
12872;DHT22;6504;53.766;9.626;2022-08-20T02:55:23;19.40;99.90
12872;DHT22;6504;53.766;9.626;2022-08-20T02:57:57;19.40;99.90
12872;DHT22;6504;53.766;9.626;2022-08-20T03:00:29;19.40;99.90
12872;DHT22;6504;53.766;9.626;2022-08-20T03:03:04;19.40;99.90
12872;DHT22;6504;53.766;9.626;2022-08-20T03:05:33;19.40;99.90
12872;DHT22;6504;53.766;9.626;2022-08-20T03:08:06;19.40;99.90
12872;DHT22;6504;53.766;9.626;2022-08-20T03:10:39;19.40;99.90
12872;DHT22;6504;53.766;9.626;2022-08-20T03:13:07;19.40;99.90
12872;DHT22;6504;53.766;9.626;2022-08-20T03:15:44;19.40;99.90
12872;DHT22;6504;53.766;9.626;2022-08-20T03:18:14;19.40;99.90
12872;DHT22;6504;53.766;9.626;2022-08-20T03:20:48;19.40;99.90
12872;DHT22;6504;53.766;9.626;2022-08-20T03:23:19;19.40;99.90
12872;DHT22;6504;53.766;9.626;2022-08-20T03:25:50;19.40;99.90
12872;DHT22;6504;53.766;9.626;2022-08-20T03:28:19;19.40;99.90
12872;DHT22;6504;53.766;9.626;2022-08-20T03:30:48;19.40;99.90
12872;DHT22;6504;53.766;9.626;2022-08-20T03:33:17;19.40;99.90
12872;DHT22;6504;53.766;9.626;2022-08-20T03:35:49;19.40;99.90
12872;DHT22;6504;53.766;9.626;2022-08-20T03:38:20;19.40;99.90
12872;DHT22;6504;53.766;9.626;2022-08-20T03:41:02;19.40;99.90
12872;DHT22;6504;53.766;9.626;2022-08-20T03:43:32;19.40;99.90
12872;DHT22;6504;53.766;9.626;2022-08-20T03:46:05;19.40;99.90
12872;DHT22;6504;53.766;9.626;2022-08-20T03:48:49;19.40;99.90
12872;DHT22;6504;53.766;9.626;2022-08-20T03:51:28;19.40;99.90
12872;DHT22;6504;53.766;9.626;2022-08-20T03:54:09;19.30;99.90
12872;DHT22;6504;53.766;9.626;2022-08-20T03:56:40;19.30;99.90
12872;DHT22;6504;53.766;9.626;2022-08-20T03:59:08;19.30;99.90
12872;DHT22;6504;53.766;9.626;2022-08-20T04:01:40;19.30;99.90
12872;DHT22;6504;53.766;9.626;2022-08-20T04:04:12;19.30;99.90
12872;DHT22;6504;53.766;9.626;2022-08-20T04:06:41;19.30;99.90
12872;DHT22;6504;53.766;9.626;2022-08-20T04:09:09;19.30;99.90
12872;DHT22;6504;53.766;9.626;2022-08-20T04:11:41;19.30;99.90
12872;DHT22;6504;53.766;9.626;2022-08-20T04:14:10;19.30;99.90
12872;DHT22;6504;53.766;9.626;2022-08-20T04:16:46;19.30;99.90
12872;DHT22;6504;53.766;9.626;2022-08-20T04:19:15;19.30;99.90
12872;DHT22;6504;53.766;9.626;2022-08-20T04:21:43;19.30;99.90
12872;DHT22;6504;53.766;9.626;2022-08-20T04:24:14;19.30;99.90
12872;DHT22;6504;53.766;9.626;2022-08-20T04:26:59;19.30;99.90
12872;DHT22;6504;53.766;9.626;2022-08-20T04:29:28;19.30;99.90
12872;DHT22;6504;53.766;9.626;2022-08-20T04:32:03;19.30;99.90
12872;DHT22;6504;53.766;9.626;2022-08-20T04:34:32;19.30;99.90
12872;DHT22;6504;53.766;9.626;2022-08-20T04:37:04;19.30;99.90
12872;DHT22;6504;53.766;9.626;2022-08-20T04:39:43;19.30;99.90
12872;DHT22;6504;53.766;9.626;2022-08-20T04:42:11;19.30;99.90
12872;DHT22;6504;53.766;9.626;2022-08-20T04:44:38;19.30;99.90
12872;DHT22;6504;53.766;9.626;2022-08-20T04:47:11;19.30;99.90
12872;DHT22;6504;53.766;9.626;2022-08-20T04:49:39;19.40;99.90
12872;DHT22;6504;53.766;9.626;2022-08-20T04:52:10;19.30;99.90
12872;DHT22;6504;53.766;9.626;2022-08-20T04:54:38;19.40;99.90
12872;DHT22;6504;53.766;9.626;2022-08-20T04:57:06;19.40;99.90
12872;DHT22;6504;53.766;9.626;2022-08-20T04:59:34;19.40;99.90
12872;DHT22;6504;53.766;9.626;2022-08-20T05:02:05;19.40;99.90
12872;DHT22;6504;53.766;9.626;2022-08-20T05:04:35;19.40;99.90
12872;DHT22;6504;53.766;9.626;2022-08-20T05:07:03;19.40;99.90
12872;DHT22;6504;53.766;9.626;2022-08-20T05:09:32;19.40;99.90
12872;DHT22;6504;53.766;9.626;2022-08-20T05:12:10;19.40;99.90
12872;DHT22;6504;53.766;9.626;2022-08-20T05:14:46;19.50;99.90
12872;DHT22;6504;53.766;9.626;2022-08-20T05:17:15;19.40;99.90
12872;DHT22;6504;53.766;9.626;2022-08-20T05:19:45;19.40;99.90
12872;DHT22;6504;53.766;9.626;2022-08-20T05:22:15;19.40;99.90
12872;DHT22;6504;53.766;9.626;2022-08-20T05:24:44;19.40;99.90
12872;DHT22;6504;53.766;9.626;2022-08-20T05:27:17;19.40;99.90
12872;DHT22;6504;53.766;9.626;2022-08-20T05:29:50;19.40;99.90
12872;DHT22;6504;53.766;9.626;2022-08-20T05:32:25;19.40;99.90
12872;DHT22;6504;53.766;9.626;2022-08-20T05:34:55;19.40;99.90
12872;DHT22;6504;53.766;9.626;2022-08-20T05:37:27;19.40;99.90
12872;DHT22;6504;53.766;9.626;2022-08-20T05:39:59;19.40;99.90
12872;DHT22;6504;53.766;9.626;2022-08-20T05:42:28;19.40;99.90
12872;DHT22;6504;53.766;9.626;2022-08-20T05:44:56;19.40;99.90
12872;DHT22;6504;53.766;9.626;2022-08-20T05:47:24;19.50;99.90
12872;DHT22;6504;53.766;9.626;2022-08-20T05:50:02;19.50;99.90
12872;DHT22;6504;53.766;9.626;2022-08-20T05:52:34;19.50;99.90
12872;DHT22;6504;53.766;9.626;2022-08-20T05:55:04;19.50;99.90
12872;DHT22;6504;53.766;9.626;2022-08-20T05:57:33;19.50;99.90
12872;DHT22;6504;53.766;9.626;2022-08-20T06:00:03;19.50;99.90
12872;DHT22;6504;53.766;9.626;2022-08-20T06:02:32;19.50;99.90
12872;DHT22;6504;53.766;9.626;2022-08-20T06:05:19;19.50;99.90
12872;DHT22;6504;53.766;9.626;2022-08-20T06:07:49;19.50;99.90
12872;DHT22;6504;53.766;9.626;2022-08-20T06:10:20;19.50;99.90
12872;DHT22;6504;53.766;9.626;2022-08-20T06:12:51;19.50;99.90
12872;DHT22;6504;53.766;9.626;2022-08-20T06:15:20;19.50;99.90
12872;DHT22;6504;53.766;9.626;2022-08-20T06:17:49;19.50;99.90
12872;DHT22;6504;53.766;9.626;2022-08-20T06:20:26;19.50;99.90
12872;DHT22;6504;53.766;9.626;2022-08-20T06:23:02;19.50;99.90
12872;DHT22;6504;53.766;9.626;2022-08-20T06:25:34;19.60;99.90
12872;DHT22;6504;53.766;9.626;2022-08-20T06:28:04;19.60;99.90
12872;DHT22;6504;53.766;9.626;2022-08-20T06:30:32;19.60;99.90
12872;DHT22;6504;53.766;9.626;2022-08-20T06:33:02;19.60;99.90
12872;DHT22;6504;53.766;9.626;2022-08-20T06:35:32;19.60;99.90
12872;DHT22;6504;53.766;9.626;2022-08-20T06:38:08;19.70;99.90
12872;DHT22;6504;53.766;9.626;2022-08-20T06:40:41;19.70;99.90
12872;DHT22;6504;53.766;9.626;2022-08-20T06:43:09;19.70;99.90
12872;DHT22;6504;53.766;9.626;2022-08-20T06:45:40;19.80;99.90
12872;DHT22;6504;53.766;9.626;2022-08-20T06:48:10;19.80;99.90
12872;DHT22;6504;53.766;9.626;2022-08-20T06:50:46;19.80;99.90
12872;DHT22;6504;53.766;9.626;2022-08-20T06:53:15;19.80;99.90
12872;DHT22;6504;53.766;9.626;2022-08-20T06:55:47;19.90;99.90
12872;DHT22;6504;53.766;9.626;2022-08-20T06:58:17;19.90;99.90
12872;DHT22;6504;53.766;9.626;2022-08-20T07:01:04;20.00;99.90
12872;DHT22;6504;53.766;9.626;2022-08-20T07:03:36;20.10;99.90
12872;DHT22;6504;53.766;9.626;2022-08-20T07:06:07;20.10;99.90
12872;DHT22;6504;53.766;9.626;2022-08-20T07:08:39;20.20;99.90
12872;DHT22;6504;53.766;9.626;2022-08-20T07:11:07;20.30;99.90
12872;DHT22;6504;53.766;9.626;2022-08-20T07:13:36;20.30;99.90
12872;DHT22;6504;53.766;9.626;2022-08-20T07:16:04;20.40;99.90
12872;DHT22;6504;53.766;9.626;2022-08-20T07:18:33;20.50;99.90
12872;DHT22;6504;53.766;9.626;2022-08-20T07:21:06;20.50;99.90
12872;DHT22;6504;53.766;9.626;2022-08-20T07:23:35;20.50;99.90
12872;DHT22;6504;53.766;9.626;2022-08-20T07:26:05;20.60;99.90
12872;DHT22;6504;53.766;9.626;2022-08-20T07:28:34;20.60;99.90
12872;DHT22;6504;53.766;9.626;2022-08-20T07:31:02;20.60;99.90
12872;DHT22;6504;53.766;9.626;2022-08-20T07:33:50;20.70;99.90
12872;DHT22;6504;53.766;9.626;2022-08-20T07:36:20;20.70;99.90
12872;DHT22;6504;53.766;9.626;2022-08-20T07:38:48;20.80;99.90
12872;DHT22;6504;53.766;9.626;2022-08-20T07:41:19;20.80;99.90
12872;DHT22;6504;53.766;9.626;2022-08-20T07:43:47;20.80;99.90
12872;DHT22;6504;53.766;9.626;2022-08-20T07:46:18;20.80;99.90
12872;DHT22;6504;53.766;9.626;2022-08-20T07:48:50;20.90;99.90
12872;DHT22;6504;53.766;9.626;2022-08-20T07:51:20;20.90;99.90
12872;DHT22;6504;53.766;9.626;2022-08-20T07:53:51;20.90;99.90
12872;DHT22;6504;53.766;9.626;2022-08-20T07:56:21;20.90;99.90
12872;DHT22;6504;53.766;9.626;2022-08-20T07:58:53;20.90;99.90
12872;DHT22;6504;53.766;9.626;2022-08-20T08:01:23;21.00;99.90
12872;DHT22;6504;53.766;9.626;2022-08-20T08:03:54;21.00;99.90
12872;DHT22;6504;53.766;9.626;2022-08-20T08:06:25;21.00;99.90
12872;DHT22;6504;53.766;9.626;2022-08-20T08:09:03;21.00;99.90
12872;DHT22;6504;53.766;9.626;2022-08-20T08:11:33;21.10;99.90
12872;DHT22;6504;53.766;9.626;2022-08-20T08:14:09;21.10;99.90
12872;DHT22;6504;53.766;9.626;2022-08-20T08:16:38;21.10;99.90
12872;DHT22;6504;53.766;9.626;2022-08-20T08:19:11;21.20;99.90
12872;DHT22;6504;53.766;9.626;2022-08-20T08:21:43;21.20;99.90
12872;DHT22;6504;53.766;9.626;2022-08-20T08:24:11;21.20;99.90
12872;DHT22;6504;53.766;9.626;2022-08-20T08:26:48;21.40;99.90
12872;DHT22;6504;53.766;9.626;2022-08-20T08:29:18;21.40;99.90
12872;DHT22;6504;53.766;9.626;2022-08-20T08:31:46;21.50;99.90
12872;DHT22;6504;53.766;9.626;2022-08-20T08:34:14;21.60;99.90
12872;DHT22;6504;53.766;9.626;2022-08-20T08:36:44;21.60;99.90
12872;DHT22;6504;53.766;9.626;2022-08-20T08:39:12;21.70;99.90
12872;DHT22;6504;53.766;9.626;2022-08-20T08:41:46;21.80;99.90
12872;DHT22;6504;53.766;9.626;2022-08-20T08:44:18;21.90;99.90
12872;DHT22;6504;53.766;9.626;2022-08-20T08:46:53;22.00;99.90
12872;DHT22;6504;53.766;9.626;2022-08-20T08:49:25;22.00;99.90
12872;DHT22;6504;53.766;9.626;2022-08-20T08:52:10;22.10;99.90
12872;DHT22;6504;53.766;9.626;2022-08-20T08:54:46;22.10;99.90
12872;DHT22;6504;53.766;9.626;2022-08-20T08:57:14;22.10;99.90
12872;DHT22;6504;53.766;9.626;2022-08-20T08:59:47;22.10;99.90
12872;DHT22;6504;53.766;9.626;2022-08-20T09:02:32;22.10;99.90
12872;DHT22;6504;53.766;9.626;2022-08-20T09:05:11;22.10;99.90
12872;DHT22;6504;53.766;9.626;2022-08-20T09:07:44;22.10;99.90
12872;DHT22;6504;53.766;9.626;2022-08-20T09:10:18;22.10;99.90
12872;DHT22;6504;53.766;9.626;2022-08-20T09:12:49;22.10;99.90
12872;DHT22;6504;53.766;9.626;2022-08-20T09:15:18;22.20;99.90
12872;DHT22;6504;53.766;9.626;2022-08-20T09:17:47;22.10;99.90
12872;DHT22;6504;53.766;9.626;2022-08-20T09:20:15;22.10;99.90
12872;DHT22;6504;53.766;9.626;2022-08-20T09:22:50;22.20;99.90
12872;DHT22;6504;53.766;9.626;2022-08-20T09:25:18;22.20;99.90
12872;DHT22;6504;53.766;9.626;2022-08-20T09:27:46;22.30;99.90
12872;DHT22;6504;53.766;9.626;2022-08-20T09:30:16;22.40;99.90
12872;DHT22;6504;53.766;9.626;2022-08-20T09:32:46;22.40;99.90
12872;DHT22;6504;53.766;9.626;2022-08-20T09:35:14;22.50;99.90
12872;DHT22;6504;53.766;9.626;2022-08-20T09:37:42;22.50;99.90
12872;DHT22;6504;53.766;9.626;2022-08-20T09:40:18;22.50;99.90
12872;DHT22;6504;53.766;9.626;2022-08-20T09:42:47;22.40;99.90
12872;DHT22;6504;53.766;9.626;2022-08-20T09:45:22;22.50;99.90
12872;DHT22;6504;53.766;9.626;2022-08-20T09:47:50;22.50;99.90
12872;DHT22;6504;53.766;9.626;2022-08-20T09:50:30;22.40;99.90
12872;DHT22;6504;53.766;9.626;2022-08-20T09:53:00;22.50;99.90
12872;DHT22;6504;53.766;9.626;2022-08-20T09:55:36;22.50;99.90
12872;DHT22;6504;53.766;9.626;2022-08-20T09:58:08;22.50;99.90
12872;DHT22;6504;53.766;9.626;2022-08-20T10:00:39;22.60;99.90
12872;DHT22;6504;53.766;9.626;2022-08-20T10:03:07;22.60;99.90
12872;DHT22;6504;53.766;9.626;2022-08-20T10:05:35;22.60;99.90
12872;DHT22;6504;53.766;9.626;2022-08-20T10:08:08;22.60;99.90
12872;DHT22;6504;53.766;9.626;2022-08-20T10:10:38;22.60;99.90
12872;DHT22;6504;53.766;9.626;2022-08-20T10:13:07;22.70;99.90
12872;DHT22;6504;53.766;9.626;2022-08-20T10:15:39;22.80;99.90
12872;DHT22;6504;53.766;9.626;2022-08-20T10:18:08;22.90;99.90
12872;DHT22;6504;53.766;9.626;2022-08-20T10:20:38;23.00;99.90
12872;DHT22;6504;53.766;9.626;2022-08-20T10:23:06;23.10;99.90
12872;DHT22;6504;53.766;9.626;2022-08-20T10:25:38;23.20;99.90
12872;DHT22;6504;53.766;9.626;2022-08-20T10:28:06;23.20;99.90
12872;DHT22;6504;53.766;9.626;2022-08-20T10:30:35;23.30;99.90
12872;DHT22;6504;53.766;9.626;2022-08-20T10:33:03;23.30;99.90
12872;DHT22;6504;53.766;9.626;2022-08-20T10:35:35;23.30;99.90
12872;DHT22;6504;53.766;9.626;2022-08-20T10:38:04;23.30;99.90
12872;DHT22;6504;53.766;9.626;2022-08-20T10:40:32;23.30;99.90
12872;DHT22;6504;53.766;9.626;2022-08-20T10:43:04;23.30;99.90
12872;DHT22;6504;53.766;9.626;2022-08-20T10:45:32;23.30;99.90
12872;DHT22;6504;53.766;9.626;2022-08-20T10:48:06;23.30;99.90
12872;DHT22;6504;53.766;9.626;2022-08-20T10:50:35;23.30;99.90
12872;DHT22;6504;53.766;9.626;2022-08-20T10:53:09;23.40;99.90
12872;DHT22;6504;53.766;9.626;2022-08-20T10:55:37;23.40;99.90
12872;DHT22;6504;53.766;9.626;2022-08-20T10:58:11;23.50;99.90
12872;DHT22;6504;53.766;9.626;2022-08-20T11:00:40;23.40;99.90
12872;DHT22;6504;53.766;9.626;2022-08-20T11:03:11;23.40;99.90
12872;DHT22;6504;53.766;9.626;2022-08-20T11:05:40;23.40;99.90
12872;DHT22;6504;53.766;9.626;2022-08-20T11:08:11;23.50;99.90
12872;DHT22;6504;53.766;9.626;2022-08-20T11:10:40;23.60;99.90
12872;DHT22;6504;53.766;9.626;2022-08-20T11:13:08;23.60;99.90
12872;DHT22;6504;53.766;9.626;2022-08-20T11:15:41;23.70;99.90
12872;DHT22;6504;53.766;9.626;2022-08-20T11:18:14;23.80;99.90
12872;DHT22;6504;53.766;9.626;2022-08-20T11:20:43;23.90;99.90
12872;DHT22;6504;53.766;9.626;2022-08-20T11:23:11;24.00;99.90
12872;DHT22;6504;53.766;9.626;2022-08-20T11:25:39;24.00;99.90
12872;DHT22;6504;53.766;9.626;2022-08-20T11:28:07;24.10;99.90
12872;DHT22;6504;53.766;9.626;2022-08-20T11:30:40;24.10;99.90
12872;DHT22;6504;53.766;9.626;2022-08-20T11:33:08;24.20;99.90
12872;DHT22;6504;53.766;9.626;2022-08-20T11:35:39;24.30;99.90
12872;DHT22;6504;53.766;9.626;2022-08-20T11:38:15;24.30;99.90
12872;DHT22;6504;53.766;9.626;2022-08-20T11:40:43;24.20;99.90
12872;DHT22;6504;53.766;9.626;2022-08-20T11:43:12;24.20;99.90
12872;DHT22;6504;53.766;9.626;2022-08-20T11:45:50;24.20;99.90
12872;DHT22;6504;53.766;9.626;2022-08-20T11:48:20;24.30;99.90
12872;DHT22;6504;53.766;9.626;2022-08-20T11:50:55;24.40;99.90
12872;DHT22;6504;53.766;9.626;2022-08-20T11:53:26;24.40;99.90
12872;DHT22;6504;53.766;9.626;2022-08-20T11:55:56;24.40;99.90
12872;DHT22;6504;53.766;9.626;2022-08-20T11:58:24;24.40;99.90
12872;DHT22;6504;53.766;9.626;2022-08-20T12:00:56;24.50;99.90
12872;DHT22;6504;53.766;9.626;2022-08-20T12:03:24;24.50;99.90
12872;DHT22;6504;53.766;9.626;2022-08-20T12:05:52;24.50;99.90
12872;DHT22;6504;53.766;9.626;2022-08-20T12:08:23;24.50;99.90
12872;DHT22;6504;53.766;9.626;2022-08-20T12:10:59;24.60;99.90
12872;DHT22;6504;53.766;9.626;2022-08-20T12:13:29;24.60;99.90
12872;DHT22;6504;53.766;9.626;2022-08-20T12:16:16;24.60;99.90
12872;DHT22;6504;53.766;9.626;2022-08-20T12:18:48;24.60;99.90
12872;DHT22;6504;53.766;9.626;2022-08-20T12:21:17;24.60;99.90
12872;DHT22;6504;53.766;9.626;2022-08-20T12:23:45;24.60;99.90
12872;DHT22;6504;53.766;9.626;2022-08-20T12:26:17;24.70;99.90
12872;DHT22;6504;53.766;9.626;2022-08-20T12:28:45;24.70;99.90
12872;DHT22;6504;53.766;9.626;2022-08-20T12:31:13;24.60;99.90
12872;DHT22;6504;53.766;9.626;2022-08-20T12:33:42;24.60;99.90
12872;DHT22;6504;53.766;9.626;2022-08-20T12:36:10;24.60;99.90
12872;DHT22;6504;53.766;9.626;2022-08-20T12:38:39;24.60;99.90
12872;DHT22;6504;53.766;9.626;2022-08-20T12:41:14;24.60;99.90
12872;DHT22;6504;53.766;9.626;2022-08-20T12:43:42;24.60;99.90
12872;DHT22;6504;53.766;9.626;2022-08-20T12:46:12;24.60;99.90
12872;DHT22;6504;53.766;9.626;2022-08-20T12:48:40;24.70;99.90
12872;DHT22;6504;53.766;9.626;2022-08-20T12:51:13;24.80;99.90
12872;DHT22;6504;53.766;9.626;2022-08-20T12:53:41;24.80;99.90
12872;DHT22;6504;53.766;9.626;2022-08-20T12:56:12;24.80;99.90
12872;DHT22;6504;53.766;9.626;2022-08-20T12:58:40;24.90;99.90
12872;DHT22;6504;53.766;9.626;2022-08-20T13:01:08;24.90;99.90
12872;DHT22;6504;53.766;9.626;2022-08-20T13:03:36;24.90;99.90
12872;DHT22;6504;53.766;9.626;2022-08-20T13:06:11;24.90;99.90
12872;DHT22;6504;53.766;9.626;2022-08-20T13:08:43;24.90;99.90
12872;DHT22;6504;53.766;9.626;2022-08-20T13:11:11;24.90;99.90
12872;DHT22;6504;53.766;9.626;2022-08-20T13:13:39;24.90;99.90
12872;DHT22;6504;53.766;9.626;2022-08-20T13:16:10;24.90;99.90
12872;DHT22;6504;53.766;9.626;2022-08-20T13:18:39;24.90;99.90
12872;DHT22;6504;53.766;9.626;2022-08-20T13:21:07;24.90;99.90
12872;DHT22;6504;53.766;9.626;2022-08-20T13:23:35;24.90;99.90
12872;DHT22;6504;53.766;9.626;2022-08-20T13:26:07;25.00;99.90
12872;DHT22;6504;53.766;9.626;2022-08-20T13:28:36;25.10;99.90
12872;DHT22;6504;53.766;9.626;2022-08-20T13:31:04;25.10;99.90
12872;DHT22;6504;53.766;9.626;2022-08-20T13:33:32;25.10;99.90
12872;DHT22;6504;53.766;9.626;2022-08-20T13:36:05;25.10;99.90
12872;DHT22;6504;53.766;9.626;2022-08-20T13:38:33;25.20;99.90
12872;DHT22;6504;53.766;9.626;2022-08-20T13:41:05;25.20;99.90
12872;DHT22;6504;53.766;9.626;2022-08-20T13:43:33;25.20;99.90
12872;DHT22;6504;53.766;9.626;2022-08-20T13:46:03;25.20;99.90
12872;DHT22;6504;53.766;9.626;2022-08-20T13:48:33;25.20;99.90
12872;DHT22;6504;53.766;9.626;2022-08-20T13:51:02;25.30;99.90
12872;DHT22;6504;53.766;9.626;2022-08-20T13:53:32;25.30;99.90
12872;DHT22;6504;53.766;9.626;2022-08-20T13:56:05;25.30;99.90
12872;DHT22;6504;53.766;9.626;2022-08-20T13:58:33;25.30;99.90
12872;DHT22;6504;53.766;9.626;2022-08-20T14:01:01;25.10;99.90
12872;DHT22;6504;53.766;9.626;2022-08-20T14:03:29;25.10;99.90
12872;DHT22;6504;53.766;9.626;2022-08-20T14:06:03;25.10;99.90
12872;DHT22;6504;53.766;9.626;2022-08-20T14:08:32;25.10;99.90
12872;DHT22;6504;53.766;9.626;2022-08-20T14:11:00;25.10;99.90
12872;DHT22;6504;53.766;9.626;2022-08-20T14:13:47;25.10;99.90
12872;DHT22;6504;53.766;9.626;2022-08-20T14:16:15;25.00;99.90
12872;DHT22;6504;53.766;9.626;2022-08-20T14:18:53;25.00;99.90
12872;DHT22;6504;53.766;9.626;2022-08-20T14:21:22;25.10;99.90
12872;DHT22;6504;53.766;9.626;2022-08-20T14:23:56;25.10;99.90
12872;DHT22;6504;53.766;9.626;2022-08-20T14:26:24;25.10;99.90
12872;DHT22;6504;53.766;9.626;2022-08-20T14:28:56;25.20;99.90
12872;DHT22;6504;53.766;9.626;2022-08-20T14:31:24;25.10;99.90
12872;DHT22;6504;53.766;9.626;2022-08-20T14:33:52;25.10;99.90
12872;DHT22;6504;53.766;9.626;2022-08-20T14:36:20;25.10;99.90
12872;DHT22;6504;53.766;9.626;2022-08-20T14:38:48;25.10;99.90
12872;DHT22;6504;53.766;9.626;2022-08-20T14:41:17;25.10;99.90
12872;DHT22;6504;53.766;9.626;2022-08-20T14:43:45;25.00;99.90
12872;DHT22;6504;53.766;9.626;2022-08-20T14:46:14;25.00;99.90
12872;DHT22;6504;53.766;9.626;2022-08-20T14:48:42;24.90;99.90
12872;DHT22;6504;53.766;9.626;2022-08-20T14:51:19;24.90;99.90
12872;DHT22;6504;53.766;9.626;2022-08-20T14:53:47;24.80;99.90
12872;DHT22;6504;53.766;9.626;2022-08-20T14:56:17;24.80;99.90
12872;DHT22;6504;53.766;9.626;2022-08-20T14:58:46;24.70;99.90
12872;DHT22;6504;53.766;9.626;2022-08-20T15:01:19;24.70;99.90
12872;DHT22;6504;53.766;9.626;2022-08-20T15:03:47;24.80;99.90
12872;DHT22;6504;53.766;9.626;2022-08-20T15:06:16;24.90;99.90
12872;DHT22;6504;53.766;9.626;2022-08-20T15:08:48;24.90;99.90
12872;DHT22;6504;53.766;9.626;2022-08-20T15:11:16;25.00;99.90
12872;DHT22;6504;53.766;9.626;2022-08-20T15:13:44;25.00;99.90
12872;DHT22;6504;53.766;9.626;2022-08-20T15:16:12;25.00;99.90
12872;DHT22;6504;53.766;9.626;2022-08-20T15:18:41;24.90;99.90
12872;DHT22;6504;53.766;9.626;2022-08-20T15:21:10;24.80;99.90
12872;DHT22;6504;53.766;9.626;2022-08-20T15:23:38;24.80;99.90
12872;DHT22;6504;53.766;9.626;2022-08-20T15:26:09;24.80;99.90
12872;DHT22;6504;53.766;9.626;2022-08-20T15:28:37;24.70;99.90
12872;DHT22;6504;53.766;9.626;2022-08-20T15:31:08;24.60;99.90
12872;DHT22;6504;53.766;9.626;2022-08-20T15:33:36;24.60;99.90
12872;DHT22;6504;53.766;9.626;2022-08-20T15:36:07;24.60;99.90
12872;DHT22;6504;53.766;9.626;2022-08-20T15:38:36;24.60;99.90
12872;DHT22;6504;53.766;9.626;2022-08-20T15:41:04;24.50;99.90
12872;DHT22;6504;53.766;9.626;2022-08-20T15:43:36;24.50;99.90
12872;DHT22;6504;53.766;9.626;2022-08-20T15:46:05;24.50;99.90
12872;DHT22;6504;53.766;9.626;2022-08-20T15:48:38;24.60;99.90
12872;DHT22;6504;53.766;9.626;2022-08-20T15:51:22;24.60;99.90
12872;DHT22;6504;53.766;9.626;2022-08-20T15:54:01;24.60;99.90
12872;DHT22;6504;53.766;9.626;2022-08-20T15:56:48;24.60;99.90
12872;DHT22;6504;53.766;9.626;2022-08-20T15:59:42;24.60;99.90
12872;DHT22;6504;53.766;9.626;2022-08-20T16:02:33;24.50;99.90
12872;DHT22;6504;53.766;9.626;2022-08-20T16:05:15;24.60;99.90
12872;DHT22;6504;53.766;9.626;2022-08-20T16:07:57;24.60;99.90
12872;DHT22;6504;53.766;9.626;2022-08-20T16:10:37;24.50;99.90
12872;DHT22;6504;53.766;9.626;2022-08-20T16:13:23;24.50;99.90
12872;DHT22;6504;53.766;9.626;2022-08-20T16:15:57;24.50;99.90
12872;DHT22;6504;53.766;9.626;2022-08-20T16:18:31;24.40;99.90
12872;DHT22;6504;53.766;9.626;2022-08-20T16:21:00;24.40;99.90
12872;DHT22;6504;53.766;9.626;2022-08-20T16:23:37;24.40;99.90